sensor_id;sensor_type;location;lat;lon;timestamp;P1;durP1;ratioP1;P2;durP2;ratioP2
68319;SDS011;55168;51.120;17.024;2023-09-08T00:00:00;11.9;;;9.8;;
68319;SDS011;55168;51.120;17.024;2023-09-08T00:01:00;11.9;;;9.8;;
68319;SDS011;55168;51.120;17.024;2023-09-08T00:02:00;11.9;;;9.8;;
68319;SDS011;55168;51.120;17.024;2023-09-08T00:03:00;11.9;;;9.8;;
68319;SDS011;55168;51.120;17.024;2023-09-08T00:04:00;11.9;;;9.8;;
68319;SDS011;55168;51.120;17.024;2023-09-08T00:05:00;12.6;;;10.6;;
68319;SDS011;55168;51.120;17.024;2023-09-08T00:06:00;12.6;;;10.6;;
68319;SDS011;55168;51.120;17.024;2023-09-08T00:07:00;12.6;;;10.6;;
68319;SDS011;55168;51.120;17.024;2023-09-08T00:08:00;12.6;;;10.6;;
68319;SDS011;55168;51.120;17.024;2023-09-08T00:09:02;12.6;;;10.6;;
68319;SDS011;55168;51.120;17.024;2023-09-08T00:10:00;11.8;;;10.6;;
68319;SDS011;55168;51.120;17.024;2023-09-08T00:11:00;11.8;;;10.6;;
68319;SDS011;55168;51.120;17.024;2023-09-08T00:12:00;11.8;;;10.6;;
68319;SDS011;55168;51.120;17.024;2023-09-08T00:13:00;11.8;;;10.6;;
68319;SDS011;55168;51.120;17.024;2023-09-08T00:14:00;11.8;;;10.6;;
68319;SDS011;55168;51.120;17.024;2023-09-08T00:15:00;11.3;;;10.2;;
68319;SDS011;55168;51.120;17.024;2023-09-08T00:16:00;11.3;;;10.2;;
68319;SDS011;55168;51.120;17.024;2023-09-08T00:17:00;11.3;;;10.2;;
68319;SDS011;55168;51.120;17.024;2023-09-08T00:18:00;11.3;;;10.2;;
68319;SDS011;55168;51.120;17.024;2023-09-08T00:19:00;11.3;;;10.2;;
68319;SDS011;55168;51.120;17.024;2023-09-08T00:20:00;13.9;;;10.7;;
68319;SDS011;55168;51.120;17.024;2023-09-08T00:21:00;13.9;;;10.7;;
68319;SDS011;55168;51.120;17.024;2023-09-08T00:22:00;13.9;;;10.7;;
68319;SDS011;55168;51.120;17.024;2023-09-08T00:23:00;13.9;;;10.7;;
68319;SDS011;55168;51.120;17.024;2023-09-08T00:24:00;13.9;;;10.7;;
68319;SDS011;55168;51.120;17.024;2023-09-08T00:25:00;12.0;;;10.7;;
68319;SDS011;55168;51.120;17.024;2023-09-08T00:26:00;12.0;;;10.7;;
68319;SDS011;55168;51.120;17.024;2023-09-08T00:27:00;12.0;;;10.7;;
68319;SDS011;55168;51.120;17.024;2023-09-08T00:28:00;12.0;;;10.7;;
68319;SDS011;55168;51.120;17.024;2023-09-08T00:29:00;12.0;;;10.7;;
68319;SDS011;55168;51.120;17.024;2023-09-08T00:30:00;12.1;;;10.9;;
68319;SDS011;55168;51.120;17.024;2023-09-08T00:31:00;12.1;;;10.9;;
68319;SDS011;55168;51.120;17.024;2023-09-08T00:32:00;12.1;;;10.9;;
68319;SDS011;55168;51.120;17.024;2023-09-08T00:33:00;12.1;;;10.9;;
68319;SDS011;55168;51.120;17.024;2023-09-08T00:34:00;12.1;;;10.9;;
68319;SDS011;55168;51.120;17.024;2023-09-08T00:35:00;12.7;;;10.5;;
68319;SDS011;55168;51.120;17.024;2023-09-08T00:36:00;12.7;;;10.5;;
68319;SDS011;55168;51.120;17.024;2023-09-08T00:37:00;12.7;;;10.5;;
68319;SDS011;55168;51.120;17.024;2023-09-08T00:38:00;12.7;;;10.5;;
68319;SDS011;55168;51.120;17.024;2023-09-08T00:39:00;12.7;;;10.5;;
68319;SDS011;55168;51.120;17.024;2023-09-08T00:40:00;11.7;;;10.5;;
68319;SDS011;55168;51.120;17.024;2023-09-08T00:41:00;11.7;;;10.5;;
68319;SDS011;55168;51.120;17.024;2023-09-08T00:42:00;11.7;;;10.5;;
68319;SDS011;55168;51.120;17.024;2023-09-08T00:43:00;11.7;;;10.5;;
68319;SDS011;55168;51.120;17.024;2023-09-08T00:44:00;11.7;;;10.5;;
68319;SDS011;55168;51.120;17.024;2023-09-08T00:45:00;12.5;;;10.8;;
68319;SDS011;55168;51.120;17.024;2023-09-08T00:46:00;12.5;;;10.8;;
68319;SDS011;55168;51.120;17.024;2023-09-08T00:47:00;12.5;;;10.8;;
68319;SDS011;55168;51.120;17.024;2023-09-08T00:48:00;12.5;;;10.8;;
68319;SDS011;55168;51.120;17.024;2023-09-08T00:49:00;12.5;;;10.8;;
68319;SDS011;55168;51.120;17.024;2023-09-08T00:50:02;14.4;;;11.6;;
68319;SDS011;55168;51.120;17.024;2023-09-08T00:51:01;14.4;;;11.6;;
68319;SDS011;55168;51.120;17.024;2023-09-08T00:52:00;14.4;;;11.6;;
68319;SDS011;55168;51.120;17.024;2023-09-08T00:53:00;14.4;;;11.6;;
68319;SDS011;55168;51.120;17.024;2023-09-08T00:54:00;14.4;;;11.6;;
68319;SDS011;55168;51.120;17.024;2023-09-08T00:55:00;12.6;;;11.3;;
68319;SDS011;55168;51.120;17.024;2023-09-08T00:56:00;12.6;;;11.3;;
68319;SDS011;55168;51.120;17.024;2023-09-08T00:57:01;12.6;;;11.3;;
68319;SDS011;55168;51.120;17.024;2023-09-08T00:58:00;12.6;;;11.3;;
68319;SDS011;55168;51.120;17.024;2023-09-08T00:59:00;12.6;;;11.3;;
68319;SDS011;55168;51.120;17.024;2023-09-08T01:00:00;14.3;;;11.5;;
68319;SDS011;55168;51.120;17.024;2023-09-08T01:01:00;14.3;;;11.5;;
68319;SDS011;55168;51.120;17.024;2023-09-08T01:02:00;14.3;;;11.5;;
68319;SDS011;55168;51.120;17.024;2023-09-08T01:03:00;14.3;;;11.5;;
68319;SDS011;55168;51.120;17.024;2023-09-08T01:04:00;14.3;;;11.5;;
68319;SDS011;55168;51.120;17.024;2023-09-08T01:05:00;13.4;;;11.9;;
68319;SDS011;55168;51.120;17.024;2023-09-08T01:06:00;13.4;;;11.9;;
68319;SDS011;55168;51.120;17.024;2023-09-08T01:07:01;13.4;;;11.9;;
68319;SDS011;55168;51.120;17.024;2023-09-08T01:08:00;13.4;;;11.9;;
68319;SDS011;55168;51.120;17.024;2023-09-08T01:09:00;13.4;;;11.9;;
68319;SDS011;55168;51.120;17.024;2023-09-08T01:10:00;13.5;;;12.0;;
68319;SDS011;55168;51.120;17.024;2023-09-08T01:11:00;13.5;;;12.0;;
68319;SDS011;55168;51.120;17.024;2023-09-08T01:12:03;13.5;;;12.0;;
68319;SDS011;55168;51.120;17.024;2023-09-08T01:13:00;13.5;;;12.0;;
68319;SDS011;55168;51.120;17.024;2023-09-08T01:14:00;13.5;;;12.0;;
68319;SDS011;55168;51.120;17.024;2023-09-08T01:15:00;13.5;;;12.1;;
68319;SDS011;55168;51.120;17.024;2023-09-08T01:16:00;13.5;;;12.1;;
68319;SDS011;55168;51.120;17.024;2023-09-08T01:17:00;13.5;;;12.1;;
68319;SDS011;55168;51.120;17.024;2023-09-08T01:18:00;13.5;;;12.1;;
68319;SDS011;55168;51.120;17.024;2023-09-08T01:19:00;13.5;;;12.1;;
68319;SDS011;55168;51.120;17.024;2023-09-08T01:20:05;15.2;;;12.4;;
68319;SDS011;55168;51.120;17.024;2023-09-08T01:23:03;15.2;;;12.4;;
68319;SDS011;55168;51.120;17.024;2023-09-08T01:24:11;15.2;;;12.4;;
68319;SDS011;55168;51.120;17.024;2023-09-08T01:25:18;14.8;;;12.6;;
68319;SDS011;55168;51.120;17.024;2023-09-08T01:26:04;14.8;;;12.6;;
68319;SDS011;55168;51.120;17.024;2023-09-08T01:27:01;14.8;;;12.6;;
68319;SDS011;55168;51.120;17.024;2023-09-08T01:28:01;14.8;;;12.6;;
68319;SDS011;55168;51.120;17.024;2023-09-08T01:29:01;14.8;;;12.6;;
68319;SDS011;55168;51.120;17.024;2023-09-08T01:30:02;13.8;;;12.4;;
68319;SDS011;55168;51.120;17.024;2023-09-08T01:31:00;13.8;;;12.4;;
68319;SDS011;55168;51.120;17.024;2023-09-08T01:32:00;13.8;;;12.4;;
68319;SDS011;55168;51.120;17.024;2023-09-08T01:33:00;13.8;;;12.4;;
68319;SDS011;55168;51.120;17.024;2023-09-08T01:34:01;13.8;;;12.4;;
68319;SDS011;55168;51.120;17.024;2023-09-08T01:35:00;13.3;;;11.9;;
68319;SDS011;55168;51.120;17.024;2023-09-08T01:36:01;13.3;;;11.9;;
68319;SDS011;55168;51.120;17.024;2023-09-08T01:37:00;13.3;;;11.9;;
68319;SDS011;55168;51.120;17.024;2023-09-08T01:38:00;13.3;;;11.9;;
68319;SDS011;55168;51.120;17.024;2023-09-08T01:39:01;13.3;;;11.9;;
68319;SDS011;55168;51.120;17.024;2023-09-08T01:40:00;14.0;;;12.6;;
68319;SDS011;55168;51.120;17.024;2023-09-08T01:41:00;14.0;;;12.6;;
68319;SDS011;55168;51.120;17.024;2023-09-08T01:42:00;14.0;;;12.6;;
68319;SDS011;55168;51.120;17.024;2023-09-08T01:43:00;14.0;;;12.6;;
68319;SDS011;55168;51.120;17.024;2023-09-08T01:44:00;14.0;;;12.6;;
68319;SDS011;55168;51.120;17.024;2023-09-08T01:45:00;14.5;;;13.0;;
68319;SDS011;55168;51.120;17.024;2023-09-08T01:46:00;14.5;;;13.0;;
68319;SDS011;55168;51.120;17.024;2023-09-08T01:47:00;14.5;;;13.0;;
68319;SDS011;55168;51.120;17.024;2023-09-08T01:48:00;14.5;;;13.0;;
68319;SDS011;55168;51.120;17.024;2023-09-08T01:49:00;14.5;;;13.0;;
68319;SDS011;55168;51.120;17.024;2023-09-08T01:50:00;14.3;;;12.8;;
68319;SDS011;55168;51.120;17.024;2023-09-08T01:51:00;14.3;;;12.8;;
68319;SDS011;55168;51.120;17.024;2023-09-08T01:52:00;14.3;;;12.8;;
68319;SDS011;55168;51.120;17.024;2023-09-08T01:53:00;14.3;;;12.8;;
68319;SDS011;55168;51.120;17.024;2023-09-08T01:54:00;14.3;;;12.8;;
68319;SDS011;55168;51.120;17.024;2023-09-08T01:55:00;14.4;;;13.0;;
68319;SDS011;55168;51.120;17.024;2023-09-08T01:56:00;14.4;;;13.0;;
68319;SDS011;55168;51.120;17.024;2023-09-08T01:57:00;14.4;;;13.0;;
68319;SDS011;55168;51.120;17.024;2023-09-08T01:58:00;14.4;;;13.0;;
68319;SDS011;55168;51.120;17.024;2023-09-08T01:59:00;14.4;;;13.0;;
68319;SDS011;55168;51.120;17.024;2023-09-08T02:00:00;14.7;;;13.2;;
68319;SDS011;55168;51.120;17.024;2023-09-08T02:01:00;14.7;;;13.2;;
68319;SDS011;55168;51.120;17.024;2023-09-08T02:02:00;14.7;;;13.2;;
68319;SDS011;55168;51.120;17.024;2023-09-08T02:03:00;14.7;;;13.2;;
68319;SDS011;55168;51.120;17.024;2023-09-08T02:04:00;14.7;;;13.2;;
68319;SDS011;55168;51.120;17.024;2023-09-08T02:05:00;15.8;;;13.4;;
68319;SDS011;55168;51.120;17.024;2023-09-08T02:06:00;15.8;;;13.4;;
68319;SDS011;55168;51.120;17.024;2023-09-08T02:07:00;15.8;;;13.4;;
68319;SDS011;55168;51.120;17.024;2023-09-08T02:08:00;15.8;;;13.4;;
68319;SDS011;55168;51.120;17.024;2023-09-08T02:09:00;15.8;;;13.4;;
68319;SDS011;55168;51.120;17.024;2023-09-08T02:10:00;16.3;;;13.6;;
68319;SDS011;55168;51.120;17.024;2023-09-08T02:11:00;16.3;;;13.6;;
68319;SDS011;55168;51.120;17.024;2023-09-08T02:12:00;16.3;;;13.6;;
68319;SDS011;55168;51.120;17.024;2023-09-08T02:13:00;16.3;;;13.6;;
68319;SDS011;55168;51.120;17.024;2023-09-08T02:14:00;16.3;;;13.6;;
68319;SDS011;55168;51.120;17.024;2023-09-08T02:15:00;15.5;;;13.9;;
68319;SDS011;55168;51.120;17.024;2023-09-08T02:16:00;15.5;;;13.9;;
68319;SDS011;55168;51.120;17.024;2023-09-08T02:17:00;15.5;;;13.9;;
68319;SDS011;55168;51.120;17.024;2023-09-08T02:18:00;15.5;;;13.9;;
68319;SDS011;55168;51.120;17.024;2023-09-08T02:19:00;15.5;;;13.9;;
68319;SDS011;55168;51.120;17.024;2023-09-08T02:20:00;16.0;;;14.4;;
68319;SDS011;55168;51.120;17.024;2023-09-08T02:21:00;16.0;;;14.4;;
68319;SDS011;55168;51.120;17.024;2023-09-08T02:22:00;16.0;;;14.4;;
68319;SDS011;55168;51.120;17.024;2023-09-08T02:23:05;16.0;;;14.4;;
68319;SDS011;55168;51.120;17.024;2023-09-08T02:24:00;16.0;;;14.4;;
68319;SDS011;55168;51.120;17.024;2023-09-08T02:25:00;17.2;;;13.7;;
68319;SDS011;55168;51.120;17.024;2023-09-08T02:26:00;17.2;;;13.7;;
68319;SDS011;55168;51.120;17.024;2023-09-08T02:27:00;17.2;;;13.7;;
68319;SDS011;55168;51.120;17.024;2023-09-08T02:28:00;17.2;;;13.7;;
68319;SDS011;55168;51.120;17.024;2023-09-08T02:29:00;17.2;;;13.7;;
68319;SDS011;55168;51.120;17.024;2023-09-08T02:30:00;16.5;;;14.2;;
68319;SDS011;55168;51.120;17.024;2023-09-08T02:31:00;16.5;;;14.2;;
68319;SDS011;55168;51.120;17.024;2023-09-08T02:32:00;16.5;;;14.2;;
68319;SDS011;55168;51.120;17.024;2023-09-08T02:33:00;16.5;;;14.2;;
68319;SDS011;55168;51.120;17.024;2023-09-08T02:34:00;16.5;;;14.2;;
68319;SDS011;55168;51.120;17.024;2023-09-08T02:35:00;17.0;;;14.7;;
68319;SDS011;55168;51.120;17.024;2023-09-08T02:36:03;17.0;;;14.7;;
68319;SDS011;55168;51.120;17.024;2023-09-08T02:37:00;17.0;;;14.7;;
68319;SDS011;55168;51.120;17.024;2023-09-08T02:38:00;17.0;;;14.7;;
68319;SDS011;55168;51.120;17.024;2023-09-08T02:39:00;17.0;;;14.7;;
68319;SDS011;55168;51.120;17.024;2023-09-08T02:40:00;15.8;;;14.1;;
68319;SDS011;55168;51.120;17.024;2023-09-08T02:41:00;15.8;;;14.1;;
68319;SDS011;55168;51.120;17.024;2023-09-08T02:42:00;15.8;;;14.1;;
68319;SDS011;55168;51.120;17.024;2023-09-08T02:43:01;15.8;;;14.1;;
68319;SDS011;55168;51.120;17.024;2023-09-08T02:44:00;15.8;;;14.1;;
68319;SDS011;55168;51.120;17.024;2023-09-08T02:45:00;16.3;;;14.7;;
68319;SDS011;55168;51.120;17.024;2023-09-08T02:46:00;16.3;;;14.7;;
68319;SDS011;55168;51.120;17.024;2023-09-08T02:47:00;16.3;;;14.7;;
68319;SDS011;55168;51.120;17.024;2023-09-08T02:48:00;16.3;;;14.7;;
68319;SDS011;55168;51.120;17.024;2023-09-08T02:49:00;16.3;;;14.7;;
68319;SDS011;55168;51.120;17.024;2023-09-08T02:50:00;16.4;;;14.0;;
68319;SDS011;55168;51.120;17.024;2023-09-08T02:51:00;16.4;;;14.0;;
68319;SDS011;55168;51.120;17.024;2023-09-08T02:52:00;16.4;;;14.0;;
68319;SDS011;55168;51.120;17.024;2023-09-08T02:53:00;16.4;;;14.0;;
68319;SDS011;55168;51.120;17.024;2023-09-08T02:54:00;16.4;;;14.0;;
68319;SDS011;55168;51.120;17.024;2023-09-08T02:55:00;16.3;;;14.3;;
68319;SDS011;55168;51.120;17.024;2023-09-08T02:56:00;16.3;;;14.3;;
68319;SDS011;55168;51.120;17.024;2023-09-08T02:57:00;16.3;;;14.3;;
68319;SDS011;55168;51.120;17.024;2023-09-08T02:58:00;16.3;;;14.3;;
68319;SDS011;55168;51.120;17.024;2023-09-08T02:59:00;16.3;;;14.3;;
68319;SDS011;55168;51.120;17.024;2023-09-08T03:00:00;16.4;;;14.7;;
68319;SDS011;55168;51.120;17.024;2023-09-08T03:01:16;16.4;;;14.7;;
68319;SDS011;55168;51.120;17.024;2023-09-08T03:02:00;16.4;;;14.7;;
68319;SDS011;55168;51.120;17.024;2023-09-08T03:03:00;16.4;;;14.7;;
68319;SDS011;55168;51.120;17.024;2023-09-08T03:04:00;16.4;;;14.7;;
68319;SDS011;55168;51.120;17.024;2023-09-08T03:05:00;16.1;;;14.5;;
68319;SDS011;55168;51.120;17.024;2023-09-08T03:06:00;16.1;;;14.5;;
68319;SDS011;55168;51.120;17.024;2023-09-08T03:07:00;16.1;;;14.5;;
68319;SDS011;55168;51.120;17.024;2023-09-08T03:08:00;16.1;;;14.5;;
68319;SDS011;55168;51.120;17.024;2023-09-08T03:09:00;16.1;;;14.5;;
68319;SDS011;55168;51.120;17.024;2023-09-08T03:10:00;16.6;;;14.9;;
68319;SDS011;55168;51.120;17.024;2023-09-08T03:11:00;16.6;;;14.9;;
68319;SDS011;55168;51.120;17.024;2023-09-08T03:12:00;16.6;;;14.9;;
68319;SDS011;55168;51.120;17.024;2023-09-08T03:13:00;16.6;;;14.9;;
68319;SDS011;55168;51.120;17.024;2023-09-08T03:14:00;16.6;;;14.9;;
68319;SDS011;55168;51.120;17.024;2023-09-08T03:15:01;17.2;;;15.4;;
68319;SDS011;55168;51.120;17.024;2023-09-08T03:16:05;17.2;;;15.4;;
68319;SDS011;55168;51.120;17.024;2023-09-08T03:17:00;17.2;;;15.4;;
68319;SDS011;55168;51.120;17.024;2023-09-08T03:18:00;17.2;;;15.4;;
68319;SDS011;55168;51.120;17.024;2023-09-08T03:19:00;17.2;;;15.4;;
68319;SDS011;55168;51.120;17.024;2023-09-08T03:20:00;17.6;;;15.1;;
68319;SDS011;55168;51.120;17.024;2023-09-08T03:21:00;17.6;;;15.1;;
68319;SDS011;55168;51.120;17.024;2023-09-08T03:22:00;17.6;;;15.1;;
68319;SDS011;55168;51.120;17.024;2023-09-08T03:23:00;17.6;;;15.1;;
68319;SDS011;55168;51.120;17.024;2023-09-08T03:24:00;17.6;;;15.1;;
68319;SDS011;55168;51.120;17.024;2023-09-08T03:25:00;17.3;;;15.5;;
68319;SDS011;55168;51.120;17.024;2023-09-08T03:26:00;17.3;;;15.5;;
68319;SDS011;55168;51.120;17.024;2023-09-08T03:27:00;17.3;;;15.5;;
68319;SDS011;55168;51.120;17.024;2023-09-08T03:28:00;17.3;;;15.5;;
68319;SDS011;55168;51.120;17.024;2023-09-08T03:29:00;17.3;;;15.5;;
68319;SDS011;55168;51.120;17.024;2023-09-08T03:30:00;17.9;;;15.8;;
68319;SDS011;55168;51.120;17.024;2023-09-08T03:31:00;17.9;;;15.8;;
68319;SDS011;55168;51.120;17.024;2023-09-08T03:32:00;17.9;;;15.8;;
68319;SDS011;55168;51.120;17.024;2023-09-08T03:33:00;17.9;;;15.8;;
68319;SDS011;55168;51.120;17.024;2023-09-08T03:34:00;17.9;;;15.8;;
68319;SDS011;55168;51.120;17.024;2023-09-08T03:35:00;19.0;;;15.8;;
68319;SDS011;55168;51.120;17.024;2023-09-08T03:36:00;19.0;;;15.8;;
68319;SDS011;55168;51.120;17.024;2023-09-08T03:37:00;19.0;;;15.8;;
68319;SDS011;55168;51.120;17.024;2023-09-08T03:38:00;19.0;;;15.8;;
68319;SDS011;55168;51.120;17.024;2023-09-08T03:39:00;19.0;;;15.8;;
68319;SDS011;55168;51.120;17.024;2023-09-08T03:40:00;18.2;;;16.3;;
68319;SDS011;55168;51.120;17.024;2023-09-08T03:41:00;18.2;;;16.3;;
68319;SDS011;55168;51.120;17.024;2023-09-08T03:42:01;18.2;;;16.3;;
68319;SDS011;55168;51.120;17.024;2023-09-08T03:43:00;18.2;;;16.3;;
68319;SDS011;55168;51.120;17.024;2023-09-08T03:44:00;18.2;;;16.3;;
68319;SDS011;55168;51.120;17.024;2023-09-08T03:45:00;17.6;;;15.7;;
68319;SDS011;55168;51.120;17.024;2023-09-08T03:46:00;17.6;;;15.7;;
68319;SDS011;55168;51.120;17.024;2023-09-08T03:47:00;17.6;;;15.7;;
68319;SDS011;55168;51.120;17.024;2023-09-08T03:48:00;17.6;;;15.7;;
68319;SDS011;55168;51.120;17.024;2023-09-08T03:49:00;17.6;;;15.7;;
68319;SDS011;55168;51.120;17.024;2023-09-08T03:50:00;17.4;;;15.6;;
68319;SDS011;55168;51.120;17.024;2023-09-08T03:51:00;17.4;;;15.6;;
68319;SDS011;55168;51.120;17.024;2023-09-08T03:52:00;17.4;;;15.6;;
68319;SDS011;55168;51.120;17.024;2023-09-08T03:53:00;17.4;;;15.6;;
68319;SDS011;55168;51.120;17.024;2023-09-08T03:54:00;17.4;;;15.6;;
68319;SDS011;55168;51.120;17.024;2023-09-08T03:55:00;18.2;;;16.3;;
68319;SDS011;55168;51.120;17.024;2023-09-08T03:56:00;18.2;;;16.3;;
68319;SDS011;55168;51.120;17.024;2023-09-08T03:57:00;18.2;;;16.3;;
68319;SDS011;55168;51.120;17.024;2023-09-08T03:58:00;18.2;;;16.3;;
68319;SDS011;55168;51.120;17.024;2023-09-08T03:59:00;18.2;;;16.3;;
68319;SDS011;55168;51.120;17.024;2023-09-08T04:00:00;17.6;;;15.8;;
68319;SDS011;55168;51.120;17.024;2023-09-08T04:01:00;17.6;;;15.8;;
68319;SDS011;55168;51.120;17.024;2023-09-08T04:02:00;17.6;;;15.8;;
68319;SDS011;55168;51.120;17.024;2023-09-08T04:03:00;17.6;;;15.8;;
68319;SDS011;55168;51.120;17.024;2023-09-08T04:04:00;17.6;;;15.8;;
68319;SDS011;55168;51.120;17.024;2023-09-08T04:05:00;18.0;;;16.1;;
68319;SDS011;55168;51.120;17.024;2023-09-08T04:06:00;18.0;;;16.1;;
68319;SDS011;55168;51.120;17.024;2023-09-08T04:07:00;18.0;;;16.1;;
68319;SDS011;55168;51.120;17.024;2023-09-08T04:08:00;18.0;;;16.1;;
68319;SDS011;55168;51.120;17.024;2023-09-08T04:09:00;18.0;;;16.1;;
68319;SDS011;55168;51.120;17.024;2023-09-08T04:10:00;17.9;;;16.0;;
68319;SDS011;55168;51.120;17.024;2023-09-08T04:11:00;17.9;;;16.0;;
68319;SDS011;55168;51.120;17.024;2023-09-08T04:12:01;17.9;;;16.0;;
68319;SDS011;55168;51.120;17.024;2023-09-08T04:13:00;17.9;;;16.0;;
68319;SDS011;55168;51.120;17.024;2023-09-08T04:14:00;17.9;;;16.0;;
68319;SDS011;55168;51.120;17.024;2023-09-08T04:15:00;17.3;;;15.5;;
68319;SDS011;55168;51.120;17.024;2023-09-08T04:16:00;17.3;;;15.5;;
68319;SDS011;55168;51.120;17.024;2023-09-08T04:17:00;17.3;;;15.5;;
68319;SDS011;55168;51.120;17.024;2023-09-08T04:18:00;17.3;;;15.5;;
68319;SDS011;55168;51.120;17.024;2023-09-08T04:19:00;17.3;;;15.5;;
68319;SDS011;55168;51.120;17.024;2023-09-08T04:20:00;18.0;;;16.2;;
68319;SDS011;55168;51.120;17.024;2023-09-08T04:21:00;18.0;;;16.2;;
68319;SDS011;55168;51.120;17.024;2023-09-08T04:22:00;18.0;;;16.2;;
68319;SDS011;55168;51.120;17.024;2023-09-08T04:23:00;18.0;;;16.2;;
68319;SDS011;55168;51.120;17.024;2023-09-08T04:24:00;18.0;;;16.2;;
68319;SDS011;55168;51.120;17.024;2023-09-08T04:25:01;17.8;;;15.7;;
68319;SDS011;55168;51.120;17.024;2023-09-08T04:26:00;17.8;;;15.7;;
68319;SDS011;55168;51.120;17.024;2023-09-08T04:27:00;17.8;;;15.7;;
68319;SDS011;55168;51.120;17.024;2023-09-08T04:28:00;17.8;;;15.7;;
68319;SDS011;55168;51.120;17.024;2023-09-08T04:29:00;17.8;;;15.7;;
68319;SDS011;55168;51.120;17.024;2023-09-08T04:30:00;17.5;;;15.3;;
68319;SDS011;55168;51.120;17.024;2023-09-08T04:31:00;17.5;;;15.3;;
68319;SDS011;55168;51.120;17.024;2023-09-08T04:32:00;17.5;;;15.3;;
68319;SDS011;55168;51.120;17.024;2023-09-08T04:33:00;17.5;;;15.3;;
68319;SDS011;55168;51.120;17.024;2023-09-08T04:34:00;17.5;;;15.3;;
68319;SDS011;55168;51.120;17.024;2023-09-08T04:35:00;18.0;;;16.1;;
68319;SDS011;55168;51.120;17.024;2023-09-08T04:36:00;18.0;;;16.1;;
68319;SDS011;55168;51.120;17.024;2023-09-08T04:37:00;18.0;;;16.1;;
68319;SDS011;55168;51.120;17.024;2023-09-08T04:38:00;18.0;;;16.1;;
68319;SDS011;55168;51.120;17.024;2023-09-08T04:39:00;18.0;;;16.1;;
68319;SDS011;55168;51.120;17.024;2023-09-08T04:40:00;17.2;;;15.3;;
68319;SDS011;55168;51.120;17.024;2023-09-08T04:41:00;17.2;;;15.3;;
68319;SDS011;55168;51.120;17.024;2023-09-08T04:42:00;17.2;;;15.3;;
68319;SDS011;55168;51.120;17.024;2023-09-08T04:43:00;17.2;;;15.3;;
68319;SDS011;55168;51.120;17.024;2023-09-08T04:44:00;17.2;;;15.3;;
68319;SDS011;55168;51.120;17.024;2023-09-08T04:45:00;17.5;;;14.4;;
68319;SDS011;55168;51.120;17.024;2023-09-08T04:46:00;17.5;;;14.4;;
68319;SDS011;55168;51.120;17.024;2023-09-08T04:47:00;17.5;;;14.4;;
68319;SDS011;55168;51.120;17.024;2023-09-08T04:48:00;17.5;;;14.4;;
68319;SDS011;55168;51.120;17.024;2023-09-08T04:49:00;17.5;;;14.4;;
68319;SDS011;55168;51.120;17.024;2023-09-08T04:50:00;16.7;;;14.7;;
68319;SDS011;55168;51.120;17.024;2023-09-08T04:51:01;16.7;;;14.7;;
68319;SDS011;55168;51.120;17.024;2023-09-08T04:52:00;16.7;;;14.7;;
68319;SDS011;55168;51.120;17.024;2023-09-08T04:53:00;16.7;;;14.7;;
68319;SDS011;55168;51.120;17.024;2023-09-08T04:54:00;16.7;;;14.7;;
68319;SDS011;55168;51.120;17.024;2023-09-08T04:55:00;15.6;;;13.9;;
68319;SDS011;55168;51.120;17.024;2023-09-08T04:56:00;15.6;;;13.9;;
68319;SDS011;55168;51.120;17.024;2023-09-08T04:57:00;15.6;;;13.9;;
68319;SDS011;55168;51.120;17.024;2023-09-08T04:58:00;15.6;;;13.9;;
68319;SDS011;55168;51.120;17.024;2023-09-08T04:59:00;15.6;;;13.9;;
68319;SDS011;55168;51.120;17.024;2023-09-08T05:00:00;15.0;;;13.5;;
68319;SDS011;55168;51.120;17.024;2023-09-08T05:01:00;15.0;;;13.5;;
68319;SDS011;55168;51.120;17.024;2023-09-08T05:02:00;15.0;;;13.5;;
68319;SDS011;55168;51.120;17.024;2023-09-08T05:03:00;15.0;;;13.5;;
68319;SDS011;55168;51.120;17.024;2023-09-08T05:04:00;15.0;;;13.5;;
68319;SDS011;55168;51.120;17.024;2023-09-08T05:05:00;14.6;;;12.0;;
68319;SDS011;55168;51.120;17.024;2023-09-08T05:06:00;14.6;;;12.0;;
68319;SDS011;55168;51.120;17.024;2023-09-08T05:07:00;14.6;;;12.0;;
68319;SDS011;55168;51.120;17.024;2023-09-08T05:08:00;14.6;;;12.0;;
68319;SDS011;55168;51.120;17.024;2023-09-08T05:09:00;14.6;;;12.0;;
68319;SDS011;55168;51.120;17.024;2023-09-08T05:10:00;14.8;;;12.2;;
68319;SDS011;55168;51.120;17.024;2023-09-08T05:11:00;14.8;;;12.2;;
68319;SDS011;55168;51.120;17.024;2023-09-08T05:12:00;14.8;;;12.2;;
68319;SDS011;55168;51.120;17.024;2023-09-08T05:13:00;14.8;;;12.2;;
68319;SDS011;55168;51.120;17.024;2023-09-08T05:14:00;14.8;;;12.2;;
68319;SDS011;55168;51.120;17.024;2023-09-08T05:15:00;13.6;;;12.1;;
68319;SDS011;55168;51.120;17.024;2023-09-08T05:16:00;13.6;;;12.1;;
68319;SDS011;55168;51.120;17.024;2023-09-08T05:17:00;13.6;;;12.1;;
68319;SDS011;55168;51.120;17.024;2023-09-08T05:18:00;13.6;;;12.1;;
68319;SDS011;55168;51.120;17.024;2023-09-08T05:19:00;13.6;;;12.1;;
68319;SDS011;55168;51.120;17.024;2023-09-08T05:20:00;13.1;;;11.8;;
68319;SDS011;55168;51.120;17.024;2023-09-08T05:21:00;13.1;;;11.8;;
68319;SDS011;55168;51.120;17.024;2023-09-08T05:22:00;13.1;;;11.8;;
68319;SDS011;55168;51.120;17.024;2023-09-08T05:23:00;13.1;;;11.8;;
68319;SDS011;55168;51.120;17.024;2023-09-08T05:24:00;13.1;;;11.8;;
68319;SDS011;55168;51.120;17.024;2023-09-08T05:25:00;12.9;;;10.9;;
68319;SDS011;55168;51.120;17.024;2023-09-08T05:26:00;12.9;;;10.9;;
68319;SDS011;55168;51.120;17.024;2023-09-08T05:27:00;12.9;;;10.9;;
68319;SDS011;55168;51.120;17.024;2023-09-08T05:28:00;12.9;;;10.9;;
68319;SDS011;55168;51.120;17.024;2023-09-08T05:29:00;12.9;;;10.9;;
68319;SDS011;55168;51.120;17.024;2023-09-08T05:30:00;14.6;;;11.9;;
68319;SDS011;55168;51.120;17.024;2023-09-08T05:31:00;14.6;;;11.9;;
68319;SDS011;55168;51.120;17.024;2023-09-08T05:32:00;14.6;;;11.9;;
68319;SDS011;55168;51.120;17.024;2023-09-08T05:33:00;14.6;;;11.9;;
68319;SDS011;55168;51.120;17.024;2023-09-08T05:34:00;14.6;;;11.9;;
68319;SDS011;55168;51.120;17.024;2023-09-08T05:35:00;12.5;;;11.0;;
68319;SDS011;55168;51.120;17.024;2023-09-08T05:36:00;12.5;;;11.0;;
68319;SDS011;55168;51.120;17.024;2023-09-08T05:37:00;12.5;;;11.0;;
68319;SDS011;55168;51.120;17.024;2023-09-08T05:38:00;12.5;;;11.0;;
68319;SDS011;55168;51.120;17.024;2023-09-08T05:39:00;12.5;;;11.0;;
68319;SDS011;55168;51.120;17.024;2023-09-08T05:40:00;12.2;;;10.8;;
68319;SDS011;55168;51.120;17.024;2023-09-08T05:41:00;12.2;;;10.8;;
68319;SDS011;55168;51.120;17.024;2023-09-08T05:42:00;12.2;;;10.8;;
68319;SDS011;55168;51.120;17.024;2023-09-08T05:43:00;12.2;;;10.8;;
68319;SDS011;55168;51.120;17.024;2023-09-08T05:44:00;12.2;;;10.8;;
68319;SDS011;55168;51.120;17.024;2023-09-08T05:45:00;12.1;;;10.9;;
68319;SDS011;55168;51.120;17.024;2023-09-08T05:46:00;12.1;;;10.9;;
68319;SDS011;55168;51.120;17.024;2023-09-08T05:47:00;12.1;;;10.9;;
68319;SDS011;55168;51.120;17.024;2023-09-08T05:48:01;12.1;;;10.9;;
68319;SDS011;55168;51.120;17.024;2023-09-08T05:49:00;12.1;;;10.9;;
68319;SDS011;55168;51.120;17.024;2023-09-08T05:50:00;11.5;;;10.3;;
68319;SDS011;55168;51.120;17.024;2023-09-08T05:51:00;11.5;;;10.3;;
68319;SDS011;55168;51.120;17.024;2023-09-08T05:52:00;11.5;;;10.3;;
68319;SDS011;55168;51.120;17.024;2023-09-08T05:53:00;11.5;;;10.3;;
68319;SDS011;55168;51.120;17.024;2023-09-08T05:54:00;11.5;;;10.3;;
68319;SDS011;55168;51.120;17.024;2023-09-08T05:55:00;12.3;;;11.0;;
68319;SDS011;55168;51.120;17.024;2023-09-08T05:56:00;12.3;;;11.0;;
68319;SDS011;55168;51.120;17.024;2023-09-08T05:57:00;12.3;;;11.0;;
68319;SDS011;55168;51.120;17.024;2023-09-08T05:58:00;12.3;;;11.0;;